Hovedside
METAR-TAF:

METAR-TAF

Lufthavner :

Ipiales, Colombia

breddegrad: 00-49N, lengdegrad: 077-38W, høyde over havet: 2961 m

Gjeldene værobservasjon

Denne rapporten ble laget for 1 time og 5 minutter siden, klokken 14:00 UTC
Flau vind
Temperatur 12°C
Luftfuktighet 94%
Trykk 1032 hPa
Sikt 10 km eller mer
Få skyer i en høyde av 1000 ft
Brutte skyer i en høyde av 8000 ft
byger på avstand

METAR: SKIP 041400Z 00000KT 9999 VCSH FEW010 BKN080 12/11 Q1032 REDZ RMK VCSH/W

Tid: 10:05 (15:05 UTC)


TAF: fraværende

Værobservasjoner og værvarsel for over 4000 flyplasser (METAR- og TAF-rapporter).

Tilgjengelige stasjoner er representert av de røde og gule prikkene på kartet.

Hold musepekeren over prikken for å se navnet på stasjonen.

Klikk så for å se værobservasjoner og -varsler.

For å forandre kartet kan du klikke på den grønne knappen med svart kryss for å zoome inn, på den grønne knappen med strek for å zoome ut, eller på de grønne pilene for å se tilstøtende kart.


METAR-TAF: